Time;durP1;ratioP1;P1;durP2;ratioP2;P2;SDS_P1;SDS_P2;PMS_P1;PMS_P2;Temp;Humidity;BMP_temperature;BMP_pressure;BME280_temperature;BME280_humidity;BME280_pressure;Samples;Min_cycle;Max_cycle;Signal;HPM_P1;HPM_P2
2024/03/31 00:00:01;;;;;;;27.93;4.93;;;10.50;99.90;;;;;;4975096;28;20486;-66
2024/03/31 00:02:26;;;;;;;15.30;4.60;;;10.60;99.90;;;;;;4975393;28;20423;-66
2024/03/31 00:04:52;;;;;;;12.10;4.97;;;10.60;99.90;;;;;;4975313;28;20925;-66
2024/03/31 00:07:17;;;;;;;11.90;5.47;;;10.60;99.90;;;;;;4974575;28;20180;-66
2024/03/31 00:09:46;;;;;;;16.17;6.50;;;10.60;99.90;;;;;;4975094;28;20195;-67
2024/03/31 00:12:12;;;;;;;18.53;6.20;;;10.60;99.90;;;;;;4974446;28;20614;-66
2024/03/31 00:14:38;;;;;;;16.10;5.33;;;10.60;99.90;;;;;;4975014;28;20873;-66
2024/03/31 00:17:04;;;;;;;16.47;5.40;;;10.60;99.90;;;;;;4974467;28;20420;-67
2024/03/31 00:19:30;;;;;;;18.20;5.70;;;10.60;99.90;;;;;;4974762;28;20204;-67
2024/03/31 00:21:55;;;;;;;15.60;6.20;;;10.60;99.90;;;;;;4974964;28;21061;-66
2024/03/31 00:24:21;;;;;;;16.00;7.30;;;10.50;99.90;;;;;;4973417;28;20184;-66
2024/03/31 00:26:46;;;;;;;23.53;8.17;;;10.50;99.90;;;;;;4974163;28;20180;-66
2024/03/31 00:29:12;;;;;;;16.23;5.73;;;10.50;99.90;;;;;;4974739;28;20239;-65
2024/03/31 00:31:37;;;;;;;14.13;5.70;;;10.50;99.90;;;;;;4974599;28;20181;-66
2024/03/31 00:34:03;;;;;;;10.63;4.80;;;10.50;99.90;;;;;;4974735;28;20188;-66
2024/03/31 00:36:28;;;;;;;21.30;5.93;;;10.50;99.90;;;;;;4974081;28;20203;-66
2024/03/31 00:38:54;;;;;;;15.60;5.67;;;10.50;99.90;;;;;;4974636;28;20642;-66
2024/03/31 00:41:19;;;;;;;13.40;4.30;;;10.50;99.90;;;;;;4974379;28;20303;-68
2024/03/31 00:43:45;;;;;;;17.50;5.53;;;10.50;99.90;;;;;;4974529;28;20191;-66
2024/03/31 00:46:10;;;;;;;21.27;6.00;;;10.60;99.90;;;;;;4974499;28;20295;-67
2024/03/31 00:48:36;;;;;;;13.63;4.90;;;10.60;99.90;;;;;;4973760;28;20518;-68
2024/03/31 00:51:02;;;;;;;20.73;5.87;;;10.70;99.90;;;;;;4974139;28;20268;-66
2024/03/31 00:53:28;;;;;;;14.77;5.60;;;10.80;99.90;;;;;;4974353;28;20179;-66
2024/03/31 00:55:53;;;;;;;13.47;4.77;;;10.80;99.90;;;;;;4974112;28;20251;-67
2024/03/31 00:58:19;;;;;;;15.30;5.70;;;10.80;99.90;;;;;;4971977;28;20168;-70
2024/03/31 01:00:44;;;;;;;21.90;5.50;;;10.80;99.90;;;;;;4973010;28;20658;-66
2024/03/31 01:03:10;;;;;;;26.53;5.57;;;10.80;99.90;;;;;;4974443;28;20172;-66
2024/03/31 01:05:36;;;;;;;20.27;6.33;;;10.90;99.90;;;;;;4974165;28;20603;-67
2024/03/31 01:08:01;;;;;;;18.00;5.90;;;10.90;99.90;;;;;;4973255;28;20223;-66
2024/03/31 01:10:27;;;;;;;17.90;5.87;;;10.80;99.90;;;;;;4973626;28;20211;-66
2024/03/31 01:12:53;;;;;;;19.83;5.20;;;10.80;99.90;;;;;;4973901;28;20522;-65
2024/03/31 01:15:19;;;;;;;16.57;6.70;;;10.80;99.90;;;;;;4973797;28;20208;-68
2024/03/31 01:17:44;;;;;;;16.73;5.90;;;10.80;99.90;;;;;;4973087;28;20238;-66
2024/03/31 01:20:10;;;;;;;18.73;6.60;;;10.80;99.90;;;;;;4973783;28;20459;-65
2024/03/31 01:22:37;;;;;;;29.83;13.27;;;10.80;99.90;;;;;;4973879;28;20180;-66
2024/03/31 01:25:03;;;;;;;25.73;8.13;;;10.80;99.90;;;;;;4972783;28;20180;-66
2024/03/31 01:27:28;;;;;;;13.90;5.17;;;10.80;99.90;;;;;;4973092;28;20411;-66
2024/03/31 01:29:54;;;;;;;12.83;5.20;;;10.80;99.90;;;;;;4973657;28;20979;-66
2024/03/31 01:32:19;;;;;;;18.50;6.03;;;10.70;99.90;;;;;;4973577;28;20673;-66
2024/03/31 01:34:45;;;;;;;14.20;4.67;;;10.80;99.90;;;;;;4973536;28;20199;-66
2024/03/31 01:37:11;;;;;;;13.30;4.80;;;10.80;99.90;;;;;;4972730;28;20184;-66
2024/03/31 01:39:36;;;;;;;18.10;7.77;;;10.90;99.90;;;;;;4973379;28;20211;-68
2024/03/31 01:42:02;;;;;;;29.50;7.40;;;10.90;99.90;;;;;;4973558;28;20168;-66
2024/03/31 01:44:27;;;;;;;27.37;7.93;;;10.80;99.90;;;;;;4973614;28;20176;-66
2024/03/31 01:46:53;;;;;;;23.47;6.07;;;10.80;99.90;;;;;;4972797;28;20164;-67
2024/03/31 01:49:19;;;;;;;17.03;5.70;;;10.80;99.90;;;;;;4973389;28;20176;-66
2024/03/31 01:51:44;;;;;;;15.30;6.50;;;10.80;99.90;;;;;;4973471;28;20188;-66
2024/03/31 01:54:10;;;;;;;27.90;7.60;;;10.80;99.90;;;;;;4973154;28;20550;-68
2024/03/31 01:56:37;;;;;;;24.20;8.97;;;10.80;99.90;;;;;;4972631;28;20172;-66
2024/03/31 01:59:02;;;;;;;23.17;7.03;;;10.80;99.90;;;;;;4973375;28;20169;-66
2024/03/31 02:01:28;;;;;;;15.10;5.77;;;10.80;99.90;;;;;;4971786;28;20451;-66
2024/03/31 02:03:53;;;;;;;21.17;8.20;;;10.80;99.90;;;;;;4973269;28;20192;-66
2024/03/31 02:06:19;;;;;;;12.93;5.43;;;10.80;99.90;;;;;;4972801;28;20184;-66
2024/03/31 02:08:45;;;;;;;19.27;5.73;;;10.80;99.90;;;;;;4972803;28;20542;-66
2024/03/31 02:11:10;;;;;;;24.40;6.00;;;10.80;99.90;;;;;;4972880;28;20212;-66
2024/03/31 02:13:36;;;;;;;16.30;5.40;;;10.90;99.90;;;;;;4973403;28;20176;-66
2024/03/31 02:16:01;;;;;;;16.60;4.93;;;10.80;99.90;;;;;;4972944;28;20208;-68
2024/03/31 02:18:27;;;;;;;18.80;4.80;;;10.80;99.90;;;;;;4972458;28;20653;-66
2024/03/31 02:20:52;;;;;;;21.87;6.03;;;10.80;99.90;;;;;;4973402;28;20550;-67
2024/03/31 02:23:18;;;;;;;18.83;5.20;;;10.80;99.90;;;;;;4973233;28;20171;-66
2024/03/31 02:25:43;;;;;;;19.90;5.40;;;10.70;99.90;;;;;;4972970;28;20183;-66
2024/03/31 02:28:09;;;;;;;20.17;5.63;;;10.70;99.90;;;;;;4972371;28;20168;-66
2024/03/31 02:30:34;;;;;;;15.47;4.13;;;10.60;99.90;;;;;;4973076;28;20732;-66
2024/03/31 02:33:00;;;;;;;21.60;5.97;;;10.50;99.90;;;;;;4973055;28;20199;-66
2024/03/31 02:35:25;;;;;;;16.87;6.27;;;10.40;99.90;;;;;;4973610;28;20262;-67
2024/03/31 02:37:51;;;;;;;21.20;5.40;;;10.40;99.90;;;;;;4976259;28;20597;-66
2024/03/31 02:40:16;;;;;;;17.30;5.10;;;10.40;99.90;;;;;;4976654;28;20214;-66
2024/03/31 02:42:42;;;;;;;12.50;4.20;;;10.30;99.90;;;;;;4976751;28;20176;-68
2024/03/31 02:45:08;;;;;;;26.60;5.40;;;10.30;99.90;;;;;;4976668;28;20173;-68
2024/03/31 02:47:33;;;;;;;19.80;5.87;;;10.20;99.90;;;;;;4975890;28;21162;-67
2024/03/31 02:49:59;;;;;;;20.60;5.03;;;10.10;99.90;;;;;;4976569;28;20283;-67
2024/03/31 02:52:25;;;;;;;12.60;7.20;;;10.00;99.90;;;;;;4976399;28;20238;-68
2024/03/31 02:54:50;;;;;;;23.40;4.70;;;10.00;99.90;;;;;;4976435;28;20822;-66
2024/03/31 02:57:16;;;;;;;14.63;5.83;;;10.00;99.90;;;;;;4975686;28;20183;-66
2024/03/31 02:59:41;;;;;;;12.47;4.30;;;10.00;99.90;;;;;;4976409;28;20274;-68
2024/03/31 03:02:07;;;;;;;17.90;4.60;;;9.90;99.90;;;;;;4976272;28;20268;-68
2024/03/31 03:04:33;;;;;;;14.43;5.13;;;9.80;99.90;;;;;;4976016;28;20188;-66
2024/03/31 03:06:59;;;;;;;21.43;5.63;;;9.70;99.90;;;;;;4975743;28;20187;-67
2024/03/31 03:09:25;;;;;;;10.77;4.53;;;9.70;99.90;;;;;;4976200;28;20427;-67
2024/03/31 03:11:51;;;;;;;26.27;6.60;;;9.70;99.90;;;;;;4976014;28;20192;-68
2024/03/31 03:14:16;;;;;;;22.20;5.23;;;9.60;99.90;;;;;;4976202;28;20798;-67
2024/03/31 03:16:42;;;;;;;21.37;4.53;;;9.60;99.90;;;;;;4975460;28;20785;-67
2024/03/31 03:19:07;;;;;;;15.90;6.33;;;9.50;99.90;;;;;;4976202;28;20657;-67
2024/03/31 03:21:33;;;;;;;17.77;5.50;;;9.40;99.90;;;;;;4976006;28;20203;-67
2024/03/31 03:23:58;;;;;;;11.90;4.43;;;9.40;99.90;;;;;;4976037;28;20191;-67
2024/03/31 03:26:24;;;;;;;25.07;5.30;;;9.30;99.90;;;;;;4975154;28;20185;-66
2024/03/31 03:28:49;;;;;;;14.23;5.27;;;9.30;99.90;;;;;;4975751;28;20177;-66
2024/03/31 03:31:15;;;;;;;21.20;4.07;;;9.30;99.90;;;;;;4975947;28;20615;-66
2024/03/31 03:33:40;;;;;;;16.60;4.30;;;9.30;99.90;;;;;;4975661;28;20184;-68
2024/03/31 03:36:06;;;;;;;15.93;4.37;;;9.30;99.90;;;;;;4975699;28;20558;-66
2024/03/31 03:38:32;;;;;;;13.00;4.67;;;9.30;99.90;;;;;;4975094;28;20604;-67
2024/03/31 03:40:58;;;;;;;16.60;4.60;;;9.20;99.90;;;;;;4975482;28;20531;-67
2024/03/31 03:43:25;;;;;;;19.27;5.20;;;9.10;99.90;;;;;;4975724;28;20173;-67
2024/03/31 03:45:51;;;;;;;13.00;4.60;;;9.10;99.90;;;;;;4975558;28;20441;-66
2024/03/31 03:48:16;;;;;;;13.73;4.67;;;8.90;99.90;;;;;;4973913;28;20473;-67
2024/03/31 03:50:42;;;;;;;15.20;4.23;;;8.90;99.90;;;;;;4975508;28;20200;-68
2024/03/31 03:53:08;;;;;;;15.47;5.17;;;8.90;99.90;;;;;;4975471;28;20709;-66
2024/03/31 03:55:33;;;;;;;20.70;6.20;;;8.90;99.90;;;;;;4975225;28;20625;-66
2024/03/31 03:57:59;;;;;;;17.43;5.30;;;8.80;99.90;;;;;;4974458;28;20518;-67
2024/03/31 04:00:24;;;;;;;14.20;4.40;;;8.70;99.90;;;;;;4975344;28;20211;-66
2024/03/31 04:02:50;;;;;;;14.50;4.40;;;8.60;99.90;;;;;;4975308;28;20259;-67
2024/03/31 04:05:16;;;;;;;13.00;3.93;;;8.60;99.90;;;;;;4975304;28;20274;-66
2024/03/31 04:07:41;;;;;;;13.97;4.27;;;8.60;99.90;;;;;;4974397;28;20180;-69
2024/03/31 04:10:07;;;;;;;18.13;4.33;;;8.50;99.90;;;;;;4974931;28;20238;-66
2024/03/31 04:12:32;;;;;;;15.87;4.90;;;8.50;99.90;;;;;;4975078;28;20222;-66
2024/03/31 04:14:59;;;;;;;15.27;5.43;;;8.50;99.90;;;;;;4975150;28;20212;-68
2024/03/31 04:17:24;;;;;;;9.17;4.40;;;8.50;99.90;;;;;;4974398;28;20176;-67
2024/03/31 04:19:50;;;;;;;15.73;4.20;;;8.40;99.90;;;;;;4974795;28;20797;-69
2024/03/31 04:22:15;;;;;;;12.40;4.13;;;8.40;99.90;;;;;;4990030;28;20232;-67
2024/03/31 04:24:41;;;;;;;14.87;4.80;;;8.40;99.90;;;;;;4974849;28;20184;-67
2024/03/31 04:27:07;;;;;;;16.23;4.70;;;8.40;99.90;;;;;;4974018;28;20184;-66
2024/03/31 04:29:32;;;;;;;17.87;5.00;;;8.40;99.90;;;;;;4974804;28;20196;-67
2024/03/31 04:31:58;;;;;;;16.93;4.37;;;8.40;99.90;;;;;;4973492;28;20641;-66
2024/03/31 04:34:28;;;;;;;16.73;5.00;;;8.30;99.90;;;;;;4974750;28;20203;-67
2024/03/31 04:36:54;;;;;;;13.50;3.77;;;8.30;99.90;;;;;;4973744;28;20430;-66
2024/03/31 04:39:20;;;;;;;16.00;5.23;;;8.30;99.90;;;;;;4974583;28;20423;-67
2024/03/31 04:41:45;;;;;;;21.97;4.87;;;8.30;99.90;;;;;;4974542;28;20921;-68
2024/03/31 04:44:11;;;;;;;10.20;4.10;;;8.30;99.90;;;;;;4974519;28;20614;-67
2024/03/31 04:46:37;;;;;;;14.13;4.63;;;8.30;99.90;;;;;;4973848;28;20176;-68
2024/03/31 04:49:05;;;;;;;16.57;6.63;;;8.30;99.90;;;;;;4974329;28;20238;-66
2024/03/31 04:51:31;;;;;;;17.33;6.47;;;8.30;99.90;;;;;;4974327;28;20860;-67
2024/03/31 04:53:56;;;;;;;14.60;5.60;;;8.30;99.90;;;;;;4974375;28;20427;-66
2024/03/31 04:56:22;;;;;;;18.03;4.80;;;8.30;99.90;;;;;;4974055;28;20673;-67
2024/03/31 04:58:48;;;;;;;19.37;7.00;;;8.40;99.90;;;;;;4973895;28;20537;-66
2024/03/31 05:01:13;;;;;;;18.53;6.80;;;8.50;99.90;;;;;;4974246;28;20223;-67
2024/03/31 05:03:39;;;;;;;17.13;5.13;;;8.60;99.90;;;;;;4974182;28;20459;-66
2024/03/31 05:06:04;;;;;;;11.30;5.23;;;8.70;99.90;;;;;;4974623;28;20180;-68
2024/03/31 05:08:30;;;;;;;15.00;4.93;;;8.70;99.90;;;;;;4972918;28;20196;-66
2024/03/31 05:10:58;;;;;;;21.20;6.10;;;8.70;99.90;;;;;;4973920;28;20898;-66
2024/03/31 05:13:33;;;;;;;13.53;4.80;;;8.70;99.90;;;;;;4973851;28;20438;-67
2024/03/31 05:16:03;;;;;;;13.20;6.87;;;8.80;99.90;;;;;;4974032;28;20489;-67
2024/03/31 05:18:29;;;;;;;11.23;6.20;;;8.90;99.90;;;;;;4973298;28;21136;-67
2024/03/31 05:21:03;;;;;;;12.60;5.90;;;8.90;99.90;;;;;;4973673;28;20447;-67
2024/03/31 05:23:29;;;;;;;24.10;6.53;;;9.00;99.90;;;;;;4973971;28;20173;-67
2024/03/31 05:25:55;;;;;;;11.90;4.53;;;9.00;99.90;;;;;;4973893;28;20428;-66
2024/03/31 05:28:21;;;;;;;14.60;5.33;;;9.10;99.90;;;;;;4972937;28;20802;-66
2024/03/31 05:30:47;;;;;;;12.23;6.00;;;9.10;99.90;;;;;;4973715;28;20272;-66
2024/03/31 05:33:13;;;;;;;15.10;7.17;;;9.20;99.90;;;;;;4973644;28;20527;-69
2024/03/31 05:35:43;;;;;;;22.77;6.70;;;9.20;99.90;;;;;;4973643;28;20690;-67
2024/03/31 05:38:10;;;;;;;14.93;5.47;;;9.40;99.90;;;;;;4972839;28;20435;-66
2024/03/31 05:40:42;;;;;;;16.67;6.87;;;9.40;99.90;;;;;;4973602;28;20443;-67
2024/03/31 05:43:08;;;;;;;19.47;7.50;;;9.40;99.90;;;;;;4973423;28;20435;-67
2024/03/31 05:45:37;;;;;;;15.70;6.87;;;9.40;99.90;;;;;;4973525;28;20807;-66
2024/03/31 05:48:07;;;;;;;17.17;7.50;;;9.50;99.90;;;;;;4972814;28;20176;-66
2024/03/31 05:50:33;;;;;;;18.53;7.57;;;9.60;99.90;;;;;;4973219;28;20470;-67
2024/03/31 05:52:58;;;;;;;18.70;8.20;;;9.70;99.90;;;;;;4973439;28;20431;-68
2024/03/31 05:55:24;;;;;;;14.93;7.27;;;9.80;99.90;;;;;;4973383;28;20208;-66
2024/03/31 05:57:50;;;;;;;21.63;8.67;;;9.80;99.90;;;;;;4972691;28;20557;-67
2024/03/31 06:00:15;;;;;;;18.93;7.47;;;9.90;99.90;;;;;;4972911;28;20574;-68
2024/03/31 06:02:41;;;;;;;18.60;8.00;;;10.00;99.90;;;;;;4973359;28;20176;-66
2024/03/31 06:05:07;;;;;;;14.03;8.53;;;10.00;99.90;;;;;;4973315;28;20235;-67
2024/03/31 06:07:32;;;;;;;23.50;9.00;;;10.10;99.90;;;;;;4972625;28;20180;-67
2024/03/31 06:09:58;;;;;;;24.80;9.87;;;10.10;99.90;;;;;;4990018;23;20223;-68
2024/03/31 06:12:24;;;;;;;26.17;10.87;;;10.20;99.90;;;;;;4992537;28;20218;-68
2024/03/31 06:14:50;;;;;;;18.90;8.90;;;10.20;99.90;;;;;;4979734;28;20204;-68
2024/03/31 06:17:16;;;;;;;17.63;9.80;;;10.20;99.90;;;;;;4972526;28;20764;-67
2024/03/31 06:19:41;;;;;;;19.37;9.73;;;10.20;99.90;;;;;;4973258;28;20215;-68
2024/03/31 06:22:07;;;;;;;18.60;9.13;;;10.20;99.90;;;;;;4973277;28;20455;-68
2024/03/31 06:24:32;;;;;;;22.10;10.50;;;10.20;99.90;;;;;;4973131;28;20198;-68
2024/03/31 06:26:58;;;;;;;17.03;11.20;;;10.30;99.90;;;;;;4972421;28;20700;-68
2024/03/31 06:29:24;;;;;;;26.43;9.50;;;10.30;99.90;;;;;;4980120;28;20183;-68
2024/03/31 06:31:49;;;;;;;29.30;11.07;;;10.40;99.90;;;;;;4992636;28;20199;-68
2024/03/31 06:34:15;;;;;;;20.80;9.23;;;10.50;99.90;;;;;;4992455;28;20235;-68
2024/03/31 06:36:40;;;;;;;19.03;9.47;;;10.50;99.90;;;;;;4973096;28;20176;-67
2024/03/31 06:39:06;;;;;;;17.97;8.73;;;10.70;99.90;;;;;;4972992;28;20172;-67
2024/03/31 06:41:32;;;;;;;15.60;8.73;;;10.70;99.90;;;;;;4973087;28;20184;-67
2024/03/31 06:43:57;;;;;;;15.40;8.13;;;10.70;99.90;;;;;;4974461;28;20786;-68
2024/03/31 06:46:23;;;;;;;18.70;8.63;;;10.70;99.90;;;;;;4991934;28;20254;-67
2024/03/31 06:48:48;;;;;;;16.53;8.60;;;10.70;99.90;;;;;;4992097;28;20171;-68
2024/03/31 06:51:14;;;;;;;24.77;8.63;;;10.60;99.90;;;;;;4992328;28;20203;-67
2024/03/31 06:53:39;;;;;;;18.03;7.37;;;10.50;99.90;;;;;;4992189;28;20887;-67
2024/03/31 06:56:05;;;;;;;14.17;7.60;;;10.50;99.90;;;;;;4973425;28;20247;-68
2024/03/31 06:58:30;;;;;;;13.47;8.80;;;10.50;99.90;;;;;;4972194;28;20251;-69
2024/03/31 07:00:57;;;;;;;15.10;8.00;;;10.50;99.90;;;;;;4971878;28;20577;-68
2024/03/31 07:03:23;;;;;;;17.67;8.93;;;10.60;99.90;;;;;;4972828;28;20188;-67
2024/03/31 07:05:48;;;;;;;16.17;8.00;;;10.70;99.90;;;;;;4972822;28;20454;-67
2024/03/31 07:08:14;;;;;;;11.93;6.00;;;11.00;99.90;;;;;;4990039;28;20187;-67
2024/03/31 07:10:39;;;;;;;15.90;8.10;;;11.20;99.90;;;;;;4992093;28;20684;-68
2024/03/31 07:13:05;;;;;;;15.60;7.13;;;11.30;99.90;;;;;;4992077;28;20180;-66
2024/03/31 07:15:30;;;;;;;19.27;7.10;;;11.50;99.90;;;;;;4981406;28;20212;-67
2024/03/31 07:18:07;;;;;;;19.00;7.00;;;11.70;99.90;;;;;;4971890;28;20597;-67
2024/03/31 07:20:37;;;;;;;14.23;6.87;;;11.80;99.90;;;;;;4972506;28;20192;-67
2024/03/31 07:23:03;;;;;;;17.30;6.30;;;11.70;99.90;;;;;;4974195;28;20415;-67
2024/03/31 07:25:30;;;;;;;13.60;5.50;;;11.80;99.90;;;;;;4976497;28;20482;-67
2024/03/31 07:27:55;;;;;;;9.30;6.50;;;12.30;99.90;;;;;;4975377;28;20454;-67
2024/03/31 07:30:21;;;;;;;18.67;8.03;;;12.80;99.90;;;;;;4983132;28;20450;-66
2024/03/31 07:32:46;;;;;;;17.40;6.50;;;13.30;99.90;;;;;;4995358;28;20740;-66
2024/03/31 07:35:12;;;;;;;15.40;5.33;;;13.50;99.90;;;;;;4988654;28;20571;-67
2024/03/31 07:37:38;;;;;;;13.83;4.50;;;13.80;99.90;;;;;;4987653;28;20179;-67
2024/03/31 07:40:03;;;;;;;12.40;4.67;;;14.00;99.90;;;;;;4995296;28;20196;-66
2024/03/31 07:42:29;;;;;;;14.03;5.07;;;14.00;99.90;;;;;;4995154;28;20692;-65
2024/03/31 07:44:54;;;;;;;13.23;5.13;;;14.20;99.90;;;;;;4993081;28;20190;-66
2024/03/31 07:47:20;;;;;;;9.60;5.20;;;14.40;99.90;;;;;;4975031;28;20172;-67
2024/03/31 07:49:45;;;;;;;13.63;4.60;;;14.50;99.90;;;;;;4975574;28;20195;-67
2024/03/31 07:52:11;;;;;;;15.23;5.23;;;14.80;99.90;;;;;;4975545;28;20600;-67
2024/03/31 07:54:36;;;;;;;11.30;5.40;;;14.60;99.90;;;;;;4975481;28;20191;-66
2024/03/31 07:57:02;;;;;;;16.47;7.00;;;14.20;99.90;;;;;;4975092;28;20646;-66
2024/03/31 07:59:27;;;;;;;19.97;6.00;;;14.20;99.90;;;;;;4975280;28;20206;-66
2024/03/31 08:01:54;;;;;;;13.73;5.17;;;14.40;99.90;;;;;;4991176;28;20180;-67
2024/03/31 08:04:20;;;;;;;15.20;5.27;;;14.60;99.90;;;;;;4994768;28;20160;-68
2024/03/31 08:06:46;;;;;;;10.37;4.97;;;14.90;99.90;;;;;;4994352;28;20445;-66
2024/03/31 08:09:11;;;;;;;17.23;5.97;;;15.00;99.90;;;;;;4975136;28;20173;-67
2024/03/31 08:11:37;;;;;;;15.77;5.53;;;15.20;99.90;;;;;;4975124;28;20208;-67
2024/03/31 08:14:02;;;;;;;14.00;4.60;;;15.20;99.90;;;;;;4975228;28;20172;-66
2024/03/31 08:16:28;;;;;;;15.47;5.43;;;15.00;99.90;;;;;;4985023;28;20227;-66
2024/03/31 08:18:53;;;;;;;13.23;3.80;;;15.10;99.90;;;;;;4994495;28;20179;-66
2024/03/31 08:21:19;;;;;;;17.43;4.30;;;15.40;99.90;;;;;;4994723;28;20250;-66
2024/03/31 08:23:44;;;;;;;16.63;5.10;;;15.80;99.90;;;;;;4994598;28;20184;-66
2024/03/31 08:26:10;;;;;;;9.13;4.20;;;16.30;99.90;;;;;;4986013;28;20183;-66
2024/03/31 08:28:35;;;;;;;10.30;5.00;;;16.70;99.90;;;;;;4974263;28;20684;-66
2024/03/31 08:31:01;;;;;;;16.50;4.10;;;17.00;99.90;;;;;;4975492;28;20204;-67
2024/03/31 08:33:27;;;;;;;15.90;4.20;;;17.00;99.90;;;;;;4974400;28;20172;-66
2024/03/31 08:35:55;;;;;;;16.87;5.07;;;16.90;99.90;;;;;;4974790;28;20204;-66
2024/03/31 08:38:21;;;;;;;13.70;3.90;;;17.00;99.90;;;;;;4984371;28;20207;-66
2024/03/31 08:40:49;;;;;;;12.40;4.70;;;17.10;99.90;;;;;;4994089;28;20970;-66
2024/03/31 08:43:21;;;;;;;15.60;4.30;;;16.70;99.90;;;;;;4994050;28;20898;-66
2024/03/31 08:45:48;;;;;;;13.63;3.70;;;16.90;99.90;;;;;;4992456;28;20431;-67
2024/03/31 08:48:18;;;;;;;16.00;4.00;;;16.80;99.90;;;;;;4973718;28;20515;-67
2024/03/31 08:50:45;;;;;;;14.53;4.63;;;16.70;99.90;;;;;;4974592;28;20486;-66
2024/03/31 08:53:11;;;;;;;15.37;4.40;;;17.10;99.90;;;;;;4974652;28;20474;-66
2024/03/31 08:55:37;;;;;;;13.67;5.50;;;17.60;99.90;;;;;;4974419;28;20972;-66
2024/03/31 08:58:02;;;;;;;12.53;4.20;;;18.30;99.90;;;;;;4973892;28;20263;-66
2024/03/31 09:00:29;;;;;;;8.73;3.90;;;18.90;99.90;;;;;;4974255;28;20188;-66
2024/03/31 09:02:55;;;;;;;10.70;3.87;;;18.80;99.90;;;;;;4990891;28;20206;-66
2024/03/31 09:05:21;;;;;;;16.93;4.30;;;18.30;99.90;;;;;;4993893;28;20502;-66
2024/03/31 09:07:47;;;;;;;12.73;5.37;;;18.60;99.90;;;;;;4992472;28;20194;-67
2024/03/31 09:10:14;;;;;;;9.70;3.37;;;19.20;99.90;;;;;;4974008;28;20219;-66
2024/03/31 09:12:42;;;;;;;11.03;3.67;;;19.30;99.90;;;;;;4974205;28;20178;-67
2024/03/31 09:15:08;;;;;;;8.80;3.50;;;19.10;99.60;;;;;;4973929;28;20459;-67
2024/03/31 09:17:34;;;;;;;16.13;4.40;;;19.00;99.90;;;;;;4973750;28;20913;-67
2024/03/31 09:20:02;;;;;;;13.03;3.90;;;19.80;98.40;;;;;;4973998;28;20439;-67
2024/03/31 09:22:27;;;;;;;14.03;5.50;;;20.10;96.90;;;;;;4974060;28;20455;-66
2024/03/31 09:24:54;;;;;;;13.73;5.03;;;19.20;96.90;;;;;;4981457;28;20865;-67
2024/03/31 09:27:20;;;;;;;15.93;4.67;;;18.70;99.60;;;;;;4974712;28;20180;-66
2024/03/31 09:29:46;;;;;;;16.07;4.10;;;18.60;99.90;;;;;;4993088;28;20517;-66
2024/03/31 09:32:14;;;;;;;12.20;3.50;;;18.30;99.90;;;;;;4985724;28;20522;-67
2024/03/31 09:34:44;;;;;;;13.47;4.20;;;18.20;99.90;;;;;;4975012;28;20538;-67
2024/03/31 09:37:13;;;;;;;13.17;4.03;;;18.30;99.90;;;;;;4992348;28;20975;-68
2024/03/31 09:39:40;;;;;;;15.20;4.23;;;19.10;99.90;;;;;;4992935;28;20976;-67
2024/03/31 09:42:07;;;;;;;14.57;4.60;;;20.00;97.40;;;;;;4993178;28;20785;-66
2024/03/31 09:44:35;;;;;;;11.27;4.87;;;21.30;93.90;;;;;;4976883;28;21030;-66
2024/03/31 09:47:00;;;;;;;13.90;4.40;;;21.10;91.10;;;;;;4976505;28;20782;-66
2024/03/31 09:49:33;;;;;;;10.70;4.10;;;20.50;90.40;;;;;;4992857;28;20425;-66
2024/03/31 09:52:01;;;;;;;15.60;4.43;;;19.80;93.60;;;;;;4992475;28;20526;-67
2024/03/31 09:54:36;;;;;;;20.73;4.97;;;19.30;95.30;;;;;;4973352;28;20478;-67
2024/03/31 09:57:07;;;;;;;11.10;4.60;;;18.60;96.80;;;;;;4972688;28;20498;-67
2024/03/31 09:59:43;;;;;;;21.57;5.20;;;18.20;98.20;;;;;;4973354;28;20474;-67
2024/03/31 10:02:10;;;;;;;12.17;4.87;;;18.20;99.20;;;;;;4976216;28;20445;-66
2024/03/31 10:05:00;;;;;;;14.53;4.70;;;19.40;96.90;;;;;;4991817;28;20462;-66
2024/03/31 10:07:26;;;;;;;11.60;4.47;;;20.80;92.80;;;;;;4991986;28;20462;-66
2024/03/31 10:09:54;;;;;;;10.63;4.10;;;22.90;83.30;;;;;;4992391;28;20524;-67
2024/03/31 10:12:20;;;;;;;15.53;4.47;;;23.70;72.40;;;;;;4989095;28;20176;-67
2024/03/31 10:14:47;;;;;;;12.93;4.33;;;23.90;67.70;;;;;;4973374;28;20459;-67
2024/03/31 10:17:13;;;;;;;14.20;4.53;;;24.00;63.70;;;;;;4973944;28;20438;-67
2024/03/31 10:19:41;;;;;;;20.80;4.47;;;24.20;62.50;;;;;;4992443;28;20419;-67
2024/03/31 10:22:08;;;;;;;13.37;4.13;;;24.00;60.40;;;;;;4992513;28;20919;-68
2024/03/31 10:24:35;;;;;;;22.10;4.13;;;24.20;59.80;;;;;;4987248;28;20419;-68
2024/03/31 10:27:04;;;;;;;16.23;4.00;;;24.60;57.10;;;;;;4972448;28;20423;-67
2024/03/31 10:29:29;;;;;;;12.03;4.87;;;25.40;55.70;;;;;;4973080;28;20424;-67
2024/03/31 10:31:55;;;;;;;13.07;4.63;;;26.60;52.40;;;;;;4973141;28;20470;-67
2024/03/31 10:34:21;;;;;;;12.97;4.23;;;28.70;47.40;;;;;;4989687;28;20191;-67
2024/03/31 10:36:47;;;;;;;9.47;3.90;;;28.30;40.90;;;;;;4991714;28;20171;-67
2024/03/31 10:39:14;;;;;;;18.43;4.23;;;28.30;39.50;;;;;;4992375;28;20637;-67
2024/03/31 10:41:40;;;;;;;14.23;4.43;;;28.40;38.20;;;;;;4992327;28;20492;-67
2024/03/31 10:44:06;;;;;;;11.90;4.37;;;28.10;37.10;;;;;;4977586;28;20459;-67
2024/03/31 10:46:34;;;;;;;16.53;5.53;;;27.90;36.40;;;;;;4972562;28;21051;-67
2024/03/31 10:49:01;;;;;;;15.90;4.03;;;27.40;36.70;;;;;;4972912;28;20172;-67
2024/03/31 10:51:27;;;;;;;11.40;3.43;;;24.10;39.30;;;;;;4972791;28;20439;-66
2024/03/31 10:53:54;;;;;;;14.70;6.67;;;22.50;43.30;;;;;;4972888;28;20513;-66
2024/03/31 10:56:28;;;;;;;18.03;3.80;;;21.60;47.00;;;;;;4990183;28;20462;-66
2024/03/31 10:59:07;;;;;;;12.23;5.63;;;20.80;50.30;;;;;;4996074;28;20418;-67
2024/03/31 11:01:37;;;;;;;9.80;4.30;;;21.10;51.20;;;;;;4995821;28;20434;-67
2024/03/31 11:04:23;;;;;;;11.47;4.03;;;20.90;52.30;;;;;;4977387;28;20415;-67
2024/03/31 11:06:51;;;;;;;11.40;5.20;;;20.20;55.30;;;;;;4975648;28;20458;-67
2024/03/31 11:09:17;;;;;;;13.20;4.07;;;19.70;58.40;;;;;;4976396;28;20423;-66
2024/03/31 11:11:43;;;;;;;18.40;4.20;;;19.30;62.70;;;;;;4976197;28;20609;-66
2024/03/31 11:14:09;;;;;;;18.47;4.47;;;19.00;66.50;;;;;;4976641;28;20200;-67
2024/03/31 11:16:35;;;;;;;13.47;5.03;;;18.80;71.00;;;;;;4976544;28;20987;-66
2024/03/31 11:19:02;;;;;;;13.30;5.33;;;18.40;74.90;;;;;;4976146;28;20424;-67
2024/03/31 11:21:32;;;;;;;9.97;4.60;;;18.40;78.20;;;;;;4976004;28;20438;-66
2024/03/31 11:24:00;;;;;;;17.60;6.03;;;18.30;81.80;;;;;;4976136;28;20951;-67
2024/03/31 11:26:26;;;;;;;14.80;5.10;;;18.30;83.40;;;;;;4981250;28;20427;-67
2024/03/31 11:28:54;;;;;;;12.93;4.90;;;18.30;85.30;;;;;;4995452;28;20924;-66
2024/03/31 11:31:20;;;;;;;12.30;4.37;;;18.40;85.90;;;;;;4992007;28;20242;-66
2024/03/31 11:33:47;;;;;;;26.30;5.03;;;18.50;86.40;;;;;;4975978;28;20423;-67
2024/03/31 11:36:13;;;;;;;16.30;4.93;;;18.50;86.00;;;;;;4975575;28;20236;-65
2024/03/31 11:38:38;;;;;;;13.93;4.53;;;18.40;89.00;;;;;;4975259;28;20439;-66
2024/03/31 11:41:05;;;;;;;14.17;4.80;;;18.60;88.30;;;;;;4976004;28;20436;-66
2024/03/31 11:43:31;;;;;;;11.73;4.07;;;18.70;86.90;;;;;;4975728;28;20255;-68
2024/03/31 11:45:56;;;;;;;16.83;4.43;;;19.90;80.40;;;;;;4975715;28;20459;-67
2024/03/31 11:48:22;;;;;;;12.43;4.50;;;21.50;70.30;;;;;;4992481;28;20615;-67
2024/03/31 11:50:48;;;;;;;21.67;5.33;;;23.20;59.70;;;;;;4995047;28;20191;-67
2024/03/31 11:53:13;;;;;;;13.23;4.23;;;24.00;54.80;;;;;;4994876;28;20180;-67
2024/03/31 11:55:42;;;;;;;12.23;4.53;;;24.70;51.50;;;;;;4976270;28;20459;-67
2024/03/31 11:58:08;;;;;;;10.60;4.00;;;25.60;48.70;;;;;;4974943;28;20178;-67
2024/03/31 12:00:33;;;;;;;12.73;4.13;;;27.00;44.70;;;;;;4975452;28;20444;-67
2024/03/31 12:03:08;;;;;;;12.07;3.80;;;26.70;42.00;;;;;;4975772;28;20486;-67
2024/03/31 12:05:36;;;;;;;16.63;4.93;;;25.60;43.70;;;;;;4975352;28;20635;-67
2024/03/31 12:08:02;;;;;;;13.60;3.30;;;25.10;45.20;;;;;;4973684;28;20832;-67
2024/03/31 12:10:28;;;;;;;14.00;4.03;;;24.80;45.50;;;;;;4975551;28;20522;-67
2024/03/31 12:12:53;;;;;;;14.70;5.83;;;23.90;45.70;;;;;;4986921;28;20176;-67
2024/03/31 12:15:20;;;;;;;15.57;4.63;;;23.20;47.90;;;;;;4994539;28;20528;-67
2024/03/31 12:17:46;;;;;;;13.70;5.87;;;22.50;50.30;;;;;;4993619;28;20519;-67
2024/03/31 12:20:12;;;;;;;12.97;4.60;;;22.00;52.40;;;;;;4994430;28;20441;-67
2024/03/31 12:22:41;;;;;;;18.77;5.23;;;21.50;55.60;;;;;;4985608;28;20803;-67
2024/03/31 12:25:11;;;;;;;12.83;4.03;;;21.20;55.50;;;;;;4975008;28;20227;-67
2024/03/31 12:27:37;;;;;;;10.00;4.93;;;20.80;57.90;;;;;;4974267;28;20458;-67
2024/03/31 12:30:03;;;;;;;13.73;4.97;;;20.50;58.40;;;;;;4974851;28;20451;-67
2024/03/31 12:32:30;;;;;;;20.23;4.47;;;20.20;61.40;;;;;;4979257;28;20427;-67